createdAt,value
2018-09-01T08:54:51.004Z,53.30
2018-09-01T08:57:19.379Z,51.10
2018-09-01T08:59:47.785Z,52.60
2018-09-01T09:02:16.257Z,52.70
2018-09-01T09:04:45.213Z,50.40
2018-09-01T09:07:13.955Z,50.00
2018-09-01T09:09:42.584Z,48.40
2018-09-01T09:12:11.225Z,49.30
2018-09-01T09:14:39.724Z,47.80
2018-09-01T09:17:08.132Z,47.30
2018-09-01T09:19:36.621Z,48.50
2018-09-01T09:22:05.169Z,47.10
2018-09-01T09:24:33.677Z,46.00
2018-09-01T09:27:02.316Z,48.20
2018-09-01T09:29:30.953Z,48.10
2018-09-01T09:31:59.801Z,47.90
2018-09-01T09:34:50.591Z,48.10
2018-09-01T09:37:19.142Z,47.90
2018-09-01T09:39:47.506Z,48.50
2018-09-01T09:42:16.297Z,50.80
2018-09-01T09:44:44.906Z,51.60
2018-09-01T09:47:13.341Z,54.20
2018-09-01T09:49:41.766Z,52.50
2018-09-01T09:52:11.131Z,51.40
2018-09-01T09:54:39.617Z,48.70
2018-09-01T09:57:08.857Z,48.30
2018-09-01T09:59:37.917Z,46.10
2018-09-01T10:02:06.491Z,45.10
2018-09-01T10:04:35.140Z,46.40
2018-09-01T10:07:08.037Z,45.10
2018-09-01T10:09:36.476Z,46.30
2018-09-01T10:12:04.870Z,47.00
2018-09-01T10:14:33.715Z,50.80
2018-09-01T10:17:02.232Z,53.70
2018-09-01T10:19:30.670Z,56.70
2018-09-01T10:21:59.136Z,57.40
2018-09-01T10:24:27.825Z,57.40
2018-09-01T10:26:56.497Z,56.30
2018-09-01T10:29:25.068Z,57.20
2018-09-01T10:31:53.551Z,59.40
2018-09-01T10:34:22.868Z,62.20
2018-09-01T10:36:52.292Z,58.40
2018-09-01T10:39:20.801Z,57.50
2018-09-01T10:41:49.435Z,54.00
2018-09-01T10:44:17.857Z,52.00
2018-09-01T10:46:48.571Z,51.00
2018-09-01T10:49:17.201Z,49.50
2018-09-01T10:51:45.629Z,50.10
2018-09-01T10:54:14.156Z,51.60
2018-09-01T10:56:42.932Z,54.20
2018-09-01T10:59:11.674Z,55.10
2018-09-01T11:01:40.009Z,56.60
2018-09-01T11:04:08.536Z,59.60
2018-09-01T11:06:37.184Z,58.80
2018-09-01T11:09:08.450Z,57.20
2018-09-01T11:11:37.043Z,56.50
2018-09-01T11:14:05.468Z,56.60
2018-09-01T11:16:33.984Z,58.30
2018-09-01T11:19:02.433Z,59.50
2018-09-01T11:21:30.816Z,60.70
2018-09-01T11:23:59.190Z,59.50
2018-09-01T11:26:27.609Z,56.70
2018-09-01T11:28:56.168Z,53.40
2018-09-01T11:31:24.597Z,53.00
2018-09-01T11:33:53.622Z,49.10
2018-09-01T11:36:22.860Z,48.20
2018-09-01T11:38:51.548Z,46.00
2018-09-01T11:41:20.113Z,45.80
2018-09-01T11:43:48.517Z,45.30
2018-09-01T11:46:17.084Z,45.10
2018-09-01T11:48:45.940Z,43.80
2018-09-01T11:51:14.776Z,44.50
2018-09-01T11:53:43.268Z,43.60
2018-09-01T11:56:11.629Z,45.00
2018-09-01T11:58:40.325Z,48.20
2018-09-01T12:01:09.477Z,50.90
2018-09-01T12:03:40.589Z,52.00
2018-09-01T12:09:02.697Z,53.90
2018-09-01T12:11:31.080Z,54.20
2018-09-01T12:13:59.653Z,55.30
2018-09-01T12:16:28.376Z,55.00
2018-09-01T12:18:56.948Z,57.20
2018-09-01T12:21:25.469Z,59.00
2018-09-01T12:23:54.088Z,60.20
2018-09-01T12:26:22.551Z,59.20
2018-09-01T12:28:51.059Z,59.60
2018-09-01T12:31:19.676Z,55.10
2018-09-01T12:33:48.284Z,54.00
2018-09-01T12:36:16.698Z,52.20
2018-09-01T12:38:45.216Z,50.60
2018-09-01T12:41:14.356Z,52.10
2018-09-01T12:43:42.900Z,52.30
2018-09-01T12:46:11.408Z,52.30
2018-09-01T12:48:39.783Z,52.90
2018-09-01T12:51:08.457Z,51.40
2018-09-01T12:53:36.906Z,53.30
2018-09-01T12:56:05.331Z,52.50
2018-09-01T12:58:33.928Z,52.70
2018-09-01T13:01:02.701Z,52.50
2018-09-01T13:03:31.393Z,52.90
2018-09-01T13:06:00.656Z,52.40
2018-09-01T13:08:29.240Z,50.70
2018-09-01T13:10:57.878Z,50.20
2018-09-01T13:13:26.407Z,50.90
2018-09-01T13:15:55.503Z,51.80
2018-09-01T13:18:23.993Z,52.80
2018-09-01T13:20:52.462Z,52.10
2018-09-01T13:23:21.092Z,50.30
2018-09-01T13:25:49.661Z,51.40
2018-09-01T13:28:18.284Z,52.60
2018-09-01T13:30:47.021Z,51.30
2018-09-01T13:33:16.235Z,51.40
2018-09-01T13:35:44.692Z,51.60
2018-09-01T13:38:13.773Z,51.20
2018-09-01T13:40:42.824Z,53.20
2018-09-01T13:43:11.485Z,53.10
2018-09-01T13:45:40.103Z,53.90
2018-09-01T13:48:08.647Z,54.40
2018-09-01T13:50:37.446Z,55.10
2018-09-01T13:53:06.351Z,55.00
2018-09-01T13:55:35.832Z,55.00
2018-09-01T13:58:04.622Z,53.30
2018-09-01T14:00:33.095Z,53.70
2018-09-01T14:03:01.717Z,53.80
2018-09-01T14:05:30.372Z,54.20
2018-09-01T14:07:58.796Z,53.90
2018-09-01T14:10:27.471Z,51.40
2018-09-01T14:12:55.957Z,50.90
2018-09-01T14:15:24.579Z,49.10
2018-09-01T14:17:53.017Z,48.70
2018-09-01T14:20:21.460Z,46.80
2018-09-01T14:22:50.755Z,46.60
2018-09-01T14:25:19.849Z,47.90
2018-09-01T14:27:48.463Z,47.10
2018-09-01T14:30:17.138Z,45.10
2018-09-01T14:32:45.761Z,46.30
2018-09-01T14:35:15.049Z,47.10
2018-09-01T14:37:43.479Z,46.00
2018-09-01T14:40:11.984Z,45.70
2018-09-01T14:42:41.267Z,46.20
2018-09-01T14:45:09.737Z,44.10
2018-09-01T14:47:39.002Z,44.30
2018-09-01T14:50:08.153Z,44.50
2018-09-01T14:52:37.037Z,45.60
2018-09-01T14:55:05.564Z,42.90
2018-09-01T14:57:34.077Z,45.70
2018-09-01T15:00:02.594Z,45.30
2018-09-01T15:02:31.029Z,44.20
2018-09-01T15:04:59.475Z,44.10
2018-09-01T15:07:27.956Z,42.30
2018-09-01T15:09:56.494Z,44.70
2018-09-01T15:12:25.706Z,44.90
2018-09-01T15:14:54.184Z,45.00
2018-09-01T15:17:22.689Z,43.10
2018-09-01T15:19:51.257Z,44.00
2018-09-01T15:22:19.725Z,44.10
2018-09-01T15:24:48.160Z,45.50
2018-09-01T15:27:16.610Z,46.90
2018-09-01T15:29:45.091Z,48.10
2018-09-01T15:32:14.148Z,49.50
2018-09-01T15:34:42.663Z,50.50
2018-09-01T15:37:11.054Z,51.90
2018-09-01T15:39:40.025Z,52.70
2018-09-01T15:42:08.604Z,52.70
2018-09-01T15:44:37.027Z,53.60
2018-09-01T15:47:05.499Z,54.20
2018-09-01T15:49:33.974Z,54.70
2018-09-01T15:52:02.360Z,54.90
2018-09-01T15:54:31.018Z,56.40
2018-09-01T15:56:59.430Z,56.70
2018-09-01T15:59:27.958Z,57.50
2018-09-01T16:01:56.383Z,57.50
2018-09-01T16:04:25.048Z,57.60
2018-09-01T16:06:54.441Z,58.20
2018-09-01T16:09:23.093Z,58.10
2018-09-01T16:11:51.608Z,58.60
2018-09-01T16:14:19.998Z,58.40
2018-09-01T16:16:48.465Z,58.10
2018-09-01T16:19:16.986Z,57.80
2018-09-01T16:21:45.477Z,58.30
2018-09-01T16:24:15.026Z,57.10
2018-09-01T16:26:43.554Z,56.50
2018-09-01T16:29:12.144Z,55.60
2018-09-01T16:31:40.842Z,55.20
2018-09-01T16:34:09.404Z,56.10
2018-09-01T16:36:37.952Z,56.30
2018-09-01T16:39:07.109Z,57.20
2018-09-01T16:41:35.953Z,56.80
2018-09-01T16:44:04.460Z,57.20
2018-09-01T16:46:33.768Z,57.70
2018-09-01T16:49:02.370Z,57.60
2018-09-01T16:51:31.049Z,58.50
2018-09-01T16:53:59.717Z,57.50
2018-09-01T16:56:28.349Z,58.70
2018-09-01T16:58:56.773Z,59.00
2018-09-01T17:01:25.469Z,58.80
2018-09-01T17:03:54.565Z,58.70
2018-09-01T17:06:22.961Z,59.30
2018-09-01T17:08:51.465Z,59.20
2018-09-01T17:11:20.167Z,59.90
2018-09-01T17:13:48.820Z,59.60
2018-09-01T17:16:18.231Z,60.60
2018-09-01T17:18:46.757Z,59.90
2018-09-01T17:21:15.144Z,60.00
2018-09-01T17:23:43.885Z,61.20
2018-09-01T17:26:12.613Z,60.60
2018-09-01T17:28:41.953Z,62.80
2018-09-01T17:31:10.388Z,63.00
2018-09-01T17:33:39.157Z,63.20
2018-09-01T17:36:07.593Z,62.30
2018-09-01T17:38:36.076Z,62.80
2018-09-01T17:41:04.556Z,63.40
2018-09-01T17:43:32.944Z,64.00
2018-09-01T17:46:02.333Z,65.20
2018-09-01T17:48:30.857Z,64.50
2018-09-01T17:50:59.494Z,65.20
2018-09-01T17:53:27.965Z,64.90
2018-09-01T17:55:56.595Z,66.30
2018-09-01T17:58:25.444Z,67.10
2018-09-01T18:00:53.973Z,67.50
2018-09-01T18:03:22.501Z,68.10
2018-09-01T18:05:50.965Z,67.90
2018-09-01T18:08:20.008Z,67.60
2018-09-01T18:10:49.729Z,67.50
2018-09-01T18:13:18.254Z,67.60
2018-09-01T18:15:46.969Z,68.40
2018-09-01T18:18:15.492Z,69.40
2018-09-01T18:20:44.052Z,69.00
2018-09-01T18:23:12.473Z,69.80
2018-09-01T18:25:40.877Z,69.10
2018-09-01T18:28:09.257Z,68.90
2018-09-01T18:30:38.368Z,69.70
2018-09-01T18:33:06.768Z,69.50
2018-09-01T18:35:35.314Z,70.40
2018-09-01T18:38:04.349Z,70.00
2018-09-01T18:40:33.593Z,70.60
2018-09-01T18:43:02.640Z,69.60
2018-09-01T18:45:32.280Z,70.50
2018-09-01T18:48:03.588Z,70.30
2018-09-01T18:50:32.218Z,71.60
2018-09-01T18:53:00.811Z,71.00
2018-09-01T18:55:29.487Z,70.90
2018-09-01T18:57:58.069Z,70.50
2018-09-01T19:00:26.604Z,70.80
2018-09-01T19:02:55.324Z,71.60
2018-09-01T19:05:23.842Z,71.00
2018-09-01T19:07:52.358Z,71.50
2018-09-01T19:10:21.629Z,72.40
2018-09-01T19:12:50.164Z,72.10
2018-09-01T19:15:18.766Z,72.30
2018-09-01T19:17:47.880Z,72.50
2018-09-01T19:20:16.285Z,72.90
2018-09-01T19:22:45.008Z,72.50
2018-09-01T19:25:13.548Z,72.80
2018-09-01T19:27:42.295Z,73.10
2018-09-01T19:30:11.101Z,72.70
2018-09-01T19:32:39.552Z,72.40
2018-09-01T19:35:08.097Z,73.50
2018-09-01T19:37:36.649Z,73.30
2018-09-01T19:40:05.413Z,73.70
2018-09-01T19:42:34.081Z,72.90
2018-09-01T19:45:02.792Z,73.60
2018-09-01T19:47:31.340Z,73.00
2018-09-01T19:50:00.048Z,73.60
2018-09-01T19:52:29.665Z,73.60
2018-09-01T19:54:58.921Z,73.30
2018-09-01T19:57:27.361Z,73.80
2018-09-01T20:01:49.233Z,73.70
2018-09-01T20:04:18.794Z,73.90
2018-09-01T20:06:47.327Z,74.60
2018-09-01T20:22:47.309Z,74.40
2018-09-01T20:25:17.201Z,74.50
2018-09-01T20:27:46.935Z,76.40
2018-09-01T20:30:15.550Z,76.00
2018-09-01T20:32:44.943Z,76.30
2018-09-01T20:35:20.025Z,76.30
2018-09-01T20:37:48.446Z,74.80
2018-09-01T20:40:17.724Z,74.90
2018-09-01T20:42:46.421Z,74.00
2018-09-01T20:45:15.500Z,74.90
2018-09-01T20:47:44.089Z,73.20
2018-09-01T20:50:12.645Z,73.90
2018-09-01T20:52:41.377Z,74.10
2018-09-01T20:55:09.934Z,74.60
2018-09-01T20:57:38.479Z,74.30
2018-09-01T21:00:07.411Z,74.50
2018-09-01T21:02:36.680Z,74.80
2018-09-01T21:05:05.227Z,74.50
2018-09-01T21:07:33.848Z,75.30
2018-09-01T21:10:03.981Z,74.20
2018-09-01T21:12:35.004Z,74.50
2018-09-01T21:15:03.503Z,74.70
2018-09-01T21:17:32.027Z,75.00
2018-09-01T21:20:00.421Z,75.70
2018-09-01T21:22:28.832Z,74.90
2018-09-01T21:24:59.257Z,75.60
2018-09-01T21:27:28.292Z,75.40
2018-09-01T21:29:58.495Z,76.20
2018-09-01T21:32:29.624Z,75.80
2018-09-01T21:34:58.021Z,76.60
2018-09-01T21:37:29.273Z,76.40
2018-09-01T21:39:57.720Z,77.50
2018-09-01T21:42:28.581Z,78.20
2018-09-01T21:44:58.869Z,77.80
2018-09-01T21:47:29.522Z,77.30
2018-09-01T21:49:59.862Z,78.20
2018-09-01T21:52:29.636Z,78.60
2018-09-01T21:55:00.227Z,78.60
2018-09-01T21:57:38.276Z,79.30
2018-09-01T22:00:09.432Z,79.20
2018-09-01T22:02:38.320Z,79.50
2018-09-01T22:05:18.071Z,79.40
2018-09-01T22:07:47.133Z,80.50
2018-09-01T22:10:18.802Z,80.70
2018-09-01T22:12:52.180Z,80.50
2018-09-01T22:15:25.338Z,80.90
2018-09-01T22:17:53.806Z,82.10
2018-09-01T22:20:22.228Z,81.40
2018-09-01T22:22:50.699Z,81.90
2018-09-01T22:25:19.156Z,81.90
2018-09-01T22:27:47.561Z,82.90
2018-09-01T22:30:16.026Z,83.10
2018-09-01T22:32:44.648Z,82.70
2018-09-01T22:35:13.219Z,83.10
2018-09-01T22:37:41.652Z,83.50
2018-09-01T22:40:10.074Z,83.60
2018-09-01T22:42:38.643Z,84.00
2018-09-01T22:45:07.181Z,83.70
2018-09-01T22:47:36.784Z,83.80
2018-09-01T22:50:05.321Z,84.50
2018-09-01T22:52:33.768Z,84.70
2018-09-01T22:55:02.308Z,84.60
2018-09-01T22:57:30.734Z,84.70
2018-09-01T22:59:59.171Z,84.90
2018-09-01T23:02:27.645Z,84.70
2018-09-01T23:04:56.024Z,84.70
2018-09-01T23:07:24.808Z,85.50
2018-09-01T23:09:53.348Z,85.00
2018-09-01T23:12:21.964Z,85.20
2018-09-01T23:14:50.442Z,85.40
2018-09-01T23:17:18.909Z,85.50
2018-09-01T23:19:47.333Z,85.70
2018-09-01T23:22:15.731Z,86.10
2018-09-01T23:24:44.308Z,85.40
2018-09-01T23:27:13.414Z,85.90
2018-09-01T23:29:41.909Z,85.80
2018-09-01T23:32:10.421Z,85.80
2018-09-01T23:34:39.020Z,86.20
2018-09-01T23:37:07.532Z,86.10
2018-09-01T23:39:36.089Z,86.50
2018-09-01T23:42:04.657Z,86.60
